Time;durP1;ratioP1;P1;durP2;ratioP2;P2;SDS_P1;SDS_P2;PMS_P1;PMS_P2;Temp;Humidity;BMP_temperature;BMP_pressure;BME280_temperature;BME280_humidity;BME280_pressure;Samples;Min_cycle;Max_cycle;Signal;HPM_P1;HPM_P2
2023/06/25 00:00:22;;;;;;;;;;;;;;;27.41;46.88;100580.16;103496;1285;62551;-82
2023/06/25 00:02:48;;;;;;;;;;;;;;;27.41;46.79;100581.23;103366;1290;61915;-82
2023/06/25 00:05:13;;;;;;;;;;;;;;;27.40;46.88;100577.48;103531;1284;61474;-83
2023/06/25 00:07:39;;;;;;;;;;;;;;;27.40;46.63;100579.27;103405;1289;61361;-82
2023/06/25 00:10:05;;;;;;;;;;;;;;;27.40;46.72;100580.95;103394;1290;62521;-83
2023/06/25 00:12:31;;;;;;;;;;;;;;;27.40;46.96;100583.30;103403;1287;62412;-82
2023/06/25 00:14:57;;;;;;;;;;;;;;;27.40;46.78;100587.27;103363;1290;61445;-82
2023/06/25 00:17:27;;;;;;;;;;;;;;;27.40;46.79;100592.30;103402;1286;61290;-82
2023/06/25 00:19:56;;;;;;;;;;;;;;;27.40;46.75;100596.68;103446;1284;64517;-82
2023/06/25 00:22:22;;;;;;;;;;;;;;;27.40;46.74;100603.02;103440;1289;65779;-82
2023/06/25 00:24:48;;;;;;;;;;;;;;;27.39;46.94;100607.73;103470;1288;61387;-82
2023/06/25 00:27:14;;;;;;;;;;;;;;;27.40;47.15;100611.69;103446;1284;61402;-82
2023/06/25 00:29:39;;;;;;;;;;;;;;;27.40;46.82;100613.86;103334;1291;61461;-82
2023/06/25 00:32:05;;;;;;;;;;;;;;;27.39;46.90;100614.41;103488;1288;61418;-82
2023/06/25 00:34:30;;;;;;;;;;;;;;;27.39;46.82;100616.44;103405;1290;61311;-82
2023/06/25 00:36:56;;;;;;;;;;;;;;;27.39;46.92;100620.74;103399;1284;61399;-82
2023/06/25 00:39:21;;;;;;;;;;;;;;;27.39;46.73;100631.08;103669;1284;61968;-82
2023/06/25 00:41:47;;;;;;;;;;;;;;;27.39;47.00;100632.33;103378;1284;61367;-82
2023/06/25 00:44:13;;;;;;;;;;;;;;;27.39;47.00;100635.58;103404;1285;62583;-82
2023/06/25 00:46:38;;;;;;;;;;;;;;;27.39;47.11;100638.33;103522;1284;61383;-82
2023/06/25 00:49:06;;;;;;;;;;;;;;;27.39;47.11;100649.86;103482;1289;61354;-81
2023/06/25 00:51:34;;;;;;;;;;;;;;;27.39;46.90;100663.06;103349;1284;62575;-82
2023/06/25 00:54:00;;;;;;;;;;;;;;;27.39;47.12;100671.39;103362;1284;64674;-82
2023/06/25 00:56:29;;;;;;;;;;;;;;;27.39;47.13;100680.58;103547;1287;61328;-82
2023/06/25 00:59:00;;;;;;;;;;;;;;;27.39;46.98;100687.83;103463;1285;61376;-82
2023/06/25 01:01:28;;;;;;;;;;;;;;;27.39;47.21;100694.91;103526;1289;62532;-82
2023/06/25 01:03:54;;;;;;;;;;;;;;;27.39;47.04;100697.23;103480;1288;64789;-83
2023/06/25 01:06:29;;;;;;;;;;;;;;;27.39;47.09;100693.64;103551;1287;61399;-82
2023/06/25 01:08:54;;;;;;;;;;;;;;;27.39;47.07;100697.04;103490;1289;61406;-82
2023/06/25 01:11:20;;;;;;;;;;;;;;;27.39;47.13;100702.31;103385;1284;61587;-82
2023/06/25 01:13:45;;;;;;;;;;;;;;;27.39;47.10;100699.95;103407;1290;61370;-82
2023/06/25 01:16:11;;;;;;;;;;;;;;;27.38;46.96;100703.60;103476;1290;62172;-82
2023/06/25 01:18:39;;;;;;;;;;;;;;;27.39;47.11;100700.11;103509;1285;61411;-82
2023/06/25 01:21:09;;;;;;;;;;;;;;;27.39;47.04;100703.20;103378;1284;61338;-82
2023/06/25 01:23:35;;;;;;;;;;;;;;;27.38;47.02;100705.23;103460;1284;61264;-82
2023/06/25 01:26:01;;;;;;;;;;;;;;;27.38;46.98;100707.80;103413;1284;61395;-82
2023/06/25 01:28:26;;;;;;;;;;;;;;;27.38;47.04;100713.76;103409;1287;61399;-82
2023/06/25 01:30:52;;;;;;;;;;;;;;;27.38;47.13;100718.46;103395;1290;61373;-82
2023/06/25 01:33:19;;;;;;;;;;;;;;;27.38;47.15;100719.17;103392;1284;61363;-82
2023/06/25 01:35:46;;;;;;;;;;;;;;;27.38;47.27;100715.25;103280;1290;61338;-81
2023/06/25 01:38:12;;;;;;;;;;;;;;;27.37;47.36;100713.45;103400;1284;62525;-81
2023/06/25 01:40:37;;;;;;;;;;;;;;;27.38;47.08;100712.70;103384;1285;61405;-82
2023/06/25 01:43:02;;;;;;;;;;;;;;;27.38;47.04;100710.90;103472;1284;61583;-82
2023/06/25 01:45:28;;;;;;;;;;;;;;;27.38;47.32;100710.73;103416;1285;62674;-82
2023/06/25 01:47:53;;;;;;;;;;;;;;;27.37;47.19;100714.55;103266;1289;61373;-82
2023/06/25 01:50:19;;;;;;;;;;;;;;;27.38;46.92;100722.83;103357;1284;62403;-82
2023/06/25 01:52:44;;;;;;;;;;;;;;;27.37;47.12;100727.04;103259;1284;61852;-81
2023/06/25 01:55:10;;;;;;;;;;;;;;;27.37;47.02;100726.69;103492;1284;61409;-81
2023/06/25 01:57:35;;;;;;;;;;;;;;;27.37;47.00;100718.23;103482;1284;61411;-81
2023/06/25 02:00:03;;;;;;;;;;;;;;;27.36;47.11;100718.60;103361;1290;61417;-81
2023/06/25 02:02:29;;;;;;;;;;;;;;;27.37;47.19;100712.61;103289;1284;65646;-81
2023/06/25 02:04:55;;;;;;;;;;;;;;;27.37;47.19;100715.52;103388;1287;62423;-82
2023/06/25 02:07:20;;;;;;;;;;;;;;;27.37;47.10;100712.83;103522;1284;61309;-82
2023/06/25 02:09:46;;;;;;;;;;;;;;;27.37;47.24;100708.48;103409;1285;61402;-82
2023/06/25 02:12:11;;;;;;;;;;;;;;;27.36;47.21;100704.33;103499;1290;61395;-82
2023/06/25 02:14:38;;;;;;;;;;;;;;;27.37;47.12;100708.66;103362;1287;66875;-82
2023/06/25 02:17:03;;;;;;;;;;;;;;;27.37;47.17;100704.86;103482;1284;61214;-82
2023/06/25 02:19:29;;;;;;;;;;;;;;;27.37;47.25;100702.70;103452;1289;61386;-82
2023/06/25 02:21:55;;;;;;;;;;;;;;;27.36;46.91;100701.80;103351;1284;61294;-82
2023/06/25 02:24:20;;;;;;;;;;;;;;;27.36;46.94;100706.16;103390;1285;61487;-82
2023/06/25 02:26:46;;;;;;;;;;;;;;;27.36;47.27;100705.22;103524;1287;61316;-82
2023/06/25 02:29:12;;;;;;;;;;;;;;;27.36;47.20;100700.20;103520;1284;62593;-82
2023/06/25 02:31:38;;;;;;;;;;;;;;;27.36;47.32;100700.21;103383;1284;61275;-82
2023/06/25 02:34:03;;;;;;;;;;;;;;;27.36;47.24;100697.67;103353;1284;62641;-82
2023/06/25 02:36:29;;;;;;;;;;;;;;;27.36;47.08;100698.92;103487;1287;61425;-82
2023/06/25 02:38:55;;;;;;;;;;;;;;;27.36;47.49;100702.92;103396;1284;62129;-82
2023/06/25 02:41:20;;;;;;;;;;;;;;;27.36;47.31;100695.55;103591;1288;61415;-83
2023/06/25 02:43:45;;;;;;;;;;;;;;;27.36;47.17;100699.16;103509;1284;61382;-82
2023/06/25 02:46:11;;;;;;;;;;;;;;;27.36;47.14;100699.88;103457;1284;61431;-82
2023/06/25 02:48:36;;;;;;;;;;;;;;;27.36;47.31;100696.04;103358;1285;61378;-83
2023/06/25 02:51:02;;;;;;;;;;;;;;;27.36;47.41;100698.59;103489;1285;61378;-82
2023/06/25 02:53:27;;;;;;;;;;;;;;;27.36;47.25;100693.89;103439;1287;61434;-82
2023/06/25 02:55:53;;;;;;;;;;;;;;;27.36;47.24;100694.41;103394;1285;61667;-81
2023/06/25 02:58:18;;;;;;;;;;;;;;;27.36;47.30;100698.41;103390;1284;62578;-81
2023/06/25 03:00:44;;;;;;;;;;;;;;;27.36;47.39;100698.58;103418;1286;61475;-82
2023/06/25 03:03:09;;;;;;;;;;;;;;;27.36;47.08;100699.30;103362;1288;61702;-82
2023/06/25 03:05:35;;;;;;;;;;;;;;;27.36;47.21;100698.59;103351;1288;62520;-82
2023/06/25 03:08:00;;;;;;;;;;;;;;;27.36;47.16;100697.48;103200;1286;61597;-82
2023/06/25 03:10:27;;;;;;;;;;;;;;;27.36;47.33;100695.69;103247;1286;62605;-82
2023/06/25 03:12:52;;;;;;;;;;;;;;;27.36;47.36;100697.64;103399;1286;61362;-82
2023/06/25 03:15:18;;;;;;;;;;;;;;;27.36;47.46;100693.35;103347;1288;62315;-82
2023/06/25 03:17:44;;;;;;;;;;;;;;;27.36;47.22;100692.44;103357;1288;61403;-81
2023/06/25 03:20:11;;;;;;;;;;;;;;;27.36;47.28;100690.61;103399;1288;61353;-82
2023/06/25 03:22:36;;;;;;;;;;;;;;;27.36;47.30;100690.03;103261;1287;63872;-82
2023/06/25 03:25:02;;;;;;;;;;;;;;;27.36;47.47;100683.55;103288;1286;61368;-82
2023/06/25 03:27:28;;;;;;;;;;;;;;;27.37;47.47;100683.01;103390;1287;61564;-82
2023/06/25 03:29:54;;;;;;;;;;;;;;;27.36;47.28;100685.35;103384;1287;61325;-81
2023/06/25 03:32:19;;;;;;;;;;;;;;;27.37;47.28;100682.98;103477;1284;61382;-82
2023/06/25 03:34:45;;;;;;;;;;;;;;;27.37;47.47;100680.09;103319;1293;61466;-82
2023/06/25 03:37:10;;;;;;;;;;;;;;;27.37;47.39;100675.55;103449;1284;62496;-82
2023/06/25 03:39:35;;;;;;;;;;;;;;;27.37;47.33;100672.68;103363;1287;62583;-82
2023/06/25 03:42:01;;;;;;;;;;;;;;;27.37;47.22;100672.52;103569;1284;61457;-82
2023/06/25 03:44:26;;;;;;;;;;;;;;;27.37;47.38;100670.64;103485;1288;62458;-82
2023/06/25 03:46:52;;;;;;;;;;;;;;;27.37;47.48;100673.20;103524;1287;61472;-82
2023/06/25 03:49:17;;;;;;;;;;;;;;;27.37;47.50;100676.28;103436;1289;61736;-82
2023/06/25 03:51:44;;;;;;;;;;;;;;;27.37;47.32;100679.91;103263;1285;61454;-82
2023/06/25 03:54:09;;;;;;;;;;;;;;;27.38;47.32;100679.11;103452;1284;61399;-82
2023/06/25 03:56:35;;;;;;;;;;;;;;;27.38;47.42;100681.80;103826;1285;62529;-83
2023/06/25 03:59:01;;;;;;;;;;;;;;;27.37;47.55;100679.50;103518;1289;61327;-81
2023/06/25 04:01:26;;;;;;;;;;;;;;;27.38;47.47;100679.46;103407;1284;65583;-82
2023/06/25 04:03:52;;;;;;;;;;;;;;;27.38;47.55;100677.98;103469;1284;61402;-82
2023/06/25 04:06:17;;;;;;;;;;;;;;;27.38;47.71;100675.67;103365;1285;61335;-81
2023/06/25 04:08:43;;;;;;;;;;;;;;;27.38;47.55;100672.55;103477;1284;61463;-81
2023/06/25 04:11:08;;;;;;;;;;;;;;;27.38;47.70;100670.76;103413;1284;61461;-82
2023/06/25 04:13:34;;;;;;;;;;;;;;;27.38;47.63;100669.48;103299;1284;66605;-82
2023/06/25 04:16:00;;;;;;;;;;;;;;;27.38;47.51;100670.19;103487;1284;61334;-82
2023/06/25 04:18:25;;;;;;;;;;;;;;;27.38;47.67;100672.19;103409;1284;61360;-82
2023/06/25 04:20:51;;;;;;;;;;;;;;;27.38;47.42;100674.52;103366;1284;62419;-82
2023/06/25 04:23:16;;;;;;;;;;;;;;;27.38;47.51;100672.19;103362;1290;61485;-82
2023/06/25 04:25:43;;;;;;;;;;;;;;;27.39;47.63;100671.23;103353;1292;65860;-81
2023/06/25 04:28:16;;;;;;;;;;;;;;;27.39;47.64;100674.30;103407;1287;61367;-82
2023/06/25 04:30:41;;;;;;;;;;;;;;;27.39;47.60;100673.92;103320;1284;61330;-82
2023/06/25 04:33:07;;;;;;;;;;;;;;;27.39;47.60;100674.13;103379;1285;62694;-82
2023/06/25 04:35:33;;;;;;;;;;;;;;;27.39;47.43;100671.93;103558;1290;61381;-81
2023/06/25 04:37:58;;;;;;;;;;;;;;;27.39;47.50;100674.87;103365;1284;61392;-81
2023/06/25 04:40:24;;;;;;;;;;;;;;;27.39;47.52;100670.44;103442;1285;61470;-81
2023/06/25 04:42:49;;;;;;;;;;;;;;;27.39;47.39;100673.15;103410;1285;62327;-81
2023/06/25 04:45:15;;;;;;;;;;;;;;;27.39;47.37;100674.04;103324;1284;61373;-81
2023/06/25 04:47:40;;;;;;;;;;;;;;;27.39;47.48;100671.90;103427;1285;61379;-81
2023/06/25 04:50:06;;;;;;;;;;;;;;;27.40;47.62;100672.95;103506;1284;62067;-81
2023/06/25 04:52:31;;;;;;;;;;;;;;;27.40;47.54;100673.66;103490;1285;61381;-81
2023/06/25 04:54:57;;;;;;;;;;;;;;;27.39;47.74;100668.64;103401;1284;61457;-81
2023/06/25 04:57:22;;;;;;;;;;;;;;;27.40;47.61;100668.95;103360;1284;61386;-81
2023/06/25 04:59:48;;;;;;;;;;;;;;;27.40;47.67;100669.50;103357;1284;62447;-83
2023/06/25 05:02:14;;;;;;;;;;;;;;;27.40;47.49;100672.04;103512;1284;61401;-82
2023/06/25 05:04:40;;;;;;;;;;;;;;;27.39;47.74;100671.89;103364;1284;62488;-82
2023/06/25 05:07:05;;;;;;;;;;;;;;;27.39;47.63;100672.80;103499;1289;61842;-82
2023/06/25 05:09:31;;;;;;;;;;;;;;;27.39;47.63;100672.41;103358;1284;63785;-82
2023/06/25 05:11:56;;;;;;;;;;;;;;;27.40;47.32;100670.61;103498;1290;61401;-82
2023/06/25 05:14:21;;;;;;;;;;;;;;;27.39;47.65;100672.45;103374;1284;62658;-82
2023/06/25 05:16:47;;;;;;;;;;;;;;;27.39;47.38;100667.59;103391;1284;61366;-82
2023/06/25 05:19:12;;;;;;;;;;;;;;;27.39;47.55;100660.68;103549;1284;61402;-82
2023/06/25 05:21:38;;;;;;;;;;;;;;;27.39;47.42;100663.64;103465;1284;61994;-82
2023/06/25 05:24:04;;;;;;;;;;;;;;;27.38;47.67;100661.86;103449;1289;61389;-82
2023/06/25 05:26:30;;;;;;;;;;;;;;;27.38;47.56;100659.14;103491;1284;61474;-82
2023/06/25 05:28:56;;;;;;;;;;;;;;;27.39;47.71;100657.29;103499;1284;61342;-82
2023/06/25 05:31:21;;;;;;;;;;;;;;;27.38;47.62;100659.17;103404;1284;61440;-82
2023/06/25 05:33:47;;;;;;;;;;;;;;;27.38;47.69;100660.43;103317;1284;61423;-82
2023/06/25 05:36:12;;;;;;;;;;;;;;;27.39;47.64;100659.49;103447;1289;65568;-82
2023/06/25 05:38:38;;;;;;;;;;;;;;;27.39;47.56;100661.80;103540;1289;61727;-82
2023/06/25 05:41:03;;;;;;;;;;;;;;;27.39;47.60;100661.98;103387;1290;61390;-81
2023/06/25 05:43:29;;;;;;;;;;;;;;;27.40;47.55;100658.87;103233;1290;61342;-82
2023/06/25 05:45:54;;;;;;;;;;;;;;;27.39;47.83;100660.14;103499;1284;61392;-82
2023/06/25 05:48:20;;;;;;;;;;;;;;;27.40;47.73;100658.11;103297;1292;61383;-82
2023/06/25 05:50:45;;;;;;;;;;;;;;;27.40;47.70;100659.20;103474;1284;62569;-82
2023/06/25 05:53:11;;;;;;;;;;;;;;;27.40;47.46;100657.52;103485;1287;61299;-82
2023/06/25 05:55:36;;;;;;;;;;;;;;;27.40;47.67;100653.71;103336;1284;62426;-82
2023/06/25 05:58:02;;;;;;;;;;;;;;;27.40;47.74;100656.08;103414;1284;61412;-82
2023/06/25 06:00:27;;;;;;;;;;;;;;;27.41;47.70;100657.07;103401;1284;66821;-82
2023/06/25 06:02:53;;;;;;;;;;;;;;;27.41;47.69;100658.30;103381;1290;61488;-82
2023/06/25 06:05:18;;;;;;;;;;;;;;;27.42;47.74;100661.45;103400;1284;61366;-82
2023/06/25 06:07:44;;;;;;;;;;;;;;;27.43;47.79;100660.70;103478;1288;62426;-82
2023/06/25 06:10:11;;;;;;;;;;;;;;;27.44;47.78;100659.88;103512;1290;61333;-82
2023/06/25 06:12:36;;;;;;;;;;;;;;;27.45;47.67;100655.27;103425;1284;67891;-82
2023/06/25 06:15:02;;;;;;;;;;;;;;;27.46;47.86;100656.58;103504;1286;62041;-82
2023/06/25 06:17:27;;;;;;;;;;;;;;;27.47;47.57;100659.80;103360;1285;61386;-82
2023/06/25 06:19:53;;;;;;;;;;;;;;;27.47;47.88;100666.41;103456;1290;61305;-82
2023/06/25 06:22:18;;;;;;;;;;;;;;;27.48;47.75;100672.52;103435;1284;62596;-82
2023/06/25 06:24:44;;;;;;;;;;;;;;;27.48;47.78;100671.81;103387;1290;66731;-83
2023/06/25 06:27:09;;;;;;;;;;;;;;;27.48;47.59;100673.77;103515;1286;62435;-83
2023/06/25 06:29:35;;;;;;;;;;;;;;;27.48;47.67;100675.40;103392;1284;61389;-83
2023/06/25 06:32:00;;;;;;;;;;;;;;;27.48;47.48;100671.16;103373;1290;61836;-83
2023/06/25 06:34:26;;;;;;;;;;;;;;;27.49;47.67;100673.70;103399;1285;62484;-83
2023/06/25 06:36:51;;;;;;;;;;;;;;;27.49;47.55;100677.09;103489;1288;61401;-83
2023/06/25 06:39:17;;;;;;;;;;;;;;;27.49;47.63;100677.23;103454;1288;61408;-83
2023/06/25 06:41:42;;;;;;;;;;;;;;;27.50;47.62;100677.55;103475;1285;61322;-83
2023/06/25 06:44:15;;;;;;;;;;;;;;;27.50;47.74;100682.41;103358;1284;61418;-83
2023/06/25 06:46:40;;;;;;;;;;;;;;;27.50;47.55;100682.16;103373;1290;65828;-83
2023/06/25 06:49:06;;;;;;;;;;;;;;;27.51;47.57;100683.42;103441;1285;62714;-82
2023/06/25 06:51:31;;;;;;;;;;;;;;;27.52;47.63;100681.49;103564;1284;62056;-82
2023/06/25 06:53:57;;;;;;;;;;;;;;;27.51;47.61;100682.44;103345;1284;62558;-82
2023/06/25 06:56:22;;;;;;;;;;;;;;;27.51;47.61;100682.81;103344;1290;61386;-82
2023/06/25 06:58:48;;;;;;;;;;;;;;;27.51;47.58;100681.19;103627;1290;62686;-82
2023/06/25 07:01:14;;;;;;;;;;;;;;;27.51;47.61;100682.64;103377;1287;61386;-82
2023/06/25 07:03:39;;;;;;;;;;;;;;;27.52;47.74;100681.16;103408;1284;61459;-82
2023/06/25 07:06:05;;;;;;;;;;;;;;;27.52;47.69;100681.13;103395;1290;61446;-82
2023/06/25 07:08:30;;;;;;;;;;;;;;;27.51;47.72;100677.72;102870;1285;720092;-82
2023/06/25 07:10:55;;;;;;;;;;;;;;;27.52;47.78;100678.58;103508;1284;65920;-82
2023/06/25 07:13:21;;;;;;;;;;;;;;;27.52;47.77;100680.21;103477;1290;61387;-82
2023/06/25 07:15:47;;;;;;;;;;;;;;;27.52;47.67;100676.08;103372;1284;62124;-82
2023/06/25 07:18:13;;;;;;;;;;;;;;;27.52;47.89;100678.20;103356;1284;61319;-82
2023/06/25 07:20:38;;;;;;;;;;;;;;;27.52;47.92;100676.39;103371;1284;62487;-82
2023/06/25 07:23:04;;;;;;;;;;;;;;;27.52;47.74;100673.66;103502;1284;61438;-82
2023/06/25 07:25:29;;;;;;;;;;;;;;;27.53;47.72;100673.81;103356;1285;61403;-82
2023/06/25 07:27:54;;;;;;;;;;;;;;;27.53;47.92;100673.79;103471;1290;61383;-82
2023/06/25 07:30:20;;;;;;;;;;;;;;;27.53;47.81;100675.59;103376;1284;61828;-82
2023/06/25 07:32:45;;;;;;;;;;;;;;;27.53;47.77;100676.84;103438;1288;61412;-83
2023/06/25 07:35:11;;;;;;;;;;;;;;;27.53;47.94;100677.92;103424;1285;61380;-83
2023/06/25 07:37:36;;;;;;;;;;;;;;;27.53;47.93;100678.26;103501;1288;61387;-81
2023/06/25 07:40:02;;;;;;;;;;;;;;;27.54;47.72;100674.60;103607;1289;62039;-83
2023/06/25 07:42:27;;;;;;;;;;;;;;;27.54;47.80;100674.20;103170;1288;61431;-82
2023/06/25 07:44:53;;;;;;;;;;;;;;;27.55;47.82;100671.42;103342;1288;62239;-82
2023/06/25 07:47:18;;;;;;;;;;;;;;;27.55;47.69;100663.13;103295;1287;65907;-82
2023/06/25 07:49:44;;;;;;;;;;;;;;;27.55;47.72;100659.47;103245;1287;62442;-82
2023/06/25 07:52:09;;;;;;;;;;;;;;;27.55;47.86;100655.33;103286;1293;61827;-82
2023/06/25 07:54:35;;;;;;;;;;;;;;;27.55;47.81;100653.63;103235;1288;61392;-82
2023/06/25 07:57:01;;;;;;;;;;;;;;;27.56;47.99;100652.46;103577;1288;61940;-82
2023/06/25 07:59:27;;;;;;;;;;;;;;;27.56;47.84;100653.94;103252;1287;61544;-81
2023/06/25 08:01:52;;;;;;;;;;;;;;;27.57;47.75;100652.77;103208;1289;61490;-81
2023/06/25 08:04:19;;;;;;;;;;;;;;;27.57;47.72;100648.07;103267;1287;61498;-81
2023/06/25 08:06:44;;;;;;;;;;;;;;;27.57;48.04;100643.86;103355;1292;61632;-81
2023/06/25 08:09:10;;;;;;;;;;;;;;;27.58;47.80;100641.27;103301;1287;62534;-81
2023/06/25 08:11:36;;;;;;;;;;;;;;;27.58;47.92;100641.26;103186;1288;61345;-81
2023/06/25 08:14:01;;;;;;;;;;;;;;;27.58;47.85;100641.43;103094;1293;61853;-81
2023/06/25 08:16:27;;;;;;;;;;;;;;;27.59;47.96;100638.83;103366;1285;61393;-81
2023/06/25 08:18:53;;;;;;;;;;;;;;;27.59;47.74;100638.29;103362;1290;62439;-81
2023/06/25 08:21:18;;;;;;;;;;;;;;;27.59;47.79;100638.59;103442;1284;61370;-82
2023/06/25 08:23:44;;;;;;;;;;;;;;;27.60;47.87;100641.98;103511;1290;61420;-82
2023/06/25 08:26:15;;;;;;;;;;;;;;;27.59;47.88;100645.82;103527;1284;61309;-82
2023/06/25 08:28:41;;;;;;;;;;;;;;;27.60;47.96;100643.98;103489;1290;64843;-82
2023/06/25 08:31:08;;;;;;;;;;;;;;;27.60;47.74;100639.58;103335;1284;62593;-82
2023/06/25 08:33:34;;;;;;;;;;;;;;;27.61;47.63;100635.77;103360;1290;62470;-82
2023/06/25 08:35:59;;;;;;;;;;;;;;;27.61;47.79;100631.42;103462;1288;61404;-82
2023/06/25 08:38:25;;;;;;;;;;;;;;;27.61;47.85;100631.02;103359;1290;61487;-82
2023/06/25 08:40:50;;;;;;;;;;;;;;;27.62;47.90;100628.61;103454;1284;62579;-82
2023/06/25 08:43:16;;;;;;;;;;;;;;;27.62;47.78;100626.64;103383;1290;61346;-82
2023/06/25 08:45:42;;;;;;;;;;;;;;;27.63;47.90;100624.76;103391;1285;62650;-82
2023/06/25 08:48:11;;;;;;;;;;;;;;;27.62;47.86;100625.13;103454;1287;61294;-82
2023/06/25 08:50:37;;;;;;;;;;;;;;;27.63;47.83;100620.35;103441;1290;64802;-82
2023/06/25 08:53:03;;;;;;;;;;;;;;;27.63;47.84;100614.77;103355;1284;62464;-82
2023/06/25 08:55:28;;;;;;;;;;;;;;;27.63;47.79;100612.05;103523;1284;61297;-82
2023/06/25 08:57:53;;;;;;;;;;;;;;;27.63;47.75;100605.73;103436;1284;61483;-82
2023/06/25 09:00:19;;;;;;;;;;;;;;;27.63;47.69;100599.00;103434;1290;62398;-82
2023/06/25 09:02:44;;;;;;;;;;;;;;;27.64;47.85;100596.09;103299;1291;64094;-82
2023/06/25 09:05:12;;;;;;;;;;;;;;;27.63;47.89;100596.09;103444;1285;61521;-82
2023/06/25 09:07:44;;;;;;;;;;;;;;;27.64;47.98;100597.65;103323;1285;61314;-82
2023/06/25 09:10:09;;;;;;;;;;;;;;;27.64;48.00;100596.23;103425;1284;61283;-82
2023/06/25 09:12:35;;;;;;;;;;;;;;;27.65;47.85;100591.41;103299;1290;61446;-82
2023/06/25 09:15:01;;;;;;;;;;;;;;;27.65;48.05;100585.31;103408;1290;61366;-82
2023/06/25 09:17:26;;;;;;;;;;;;;;;27.65;47.82;100585.10;103496;1289;61424;-82
2023/06/25 09:19:52;;;;;;;;;;;;;;;27.65;47.78;100587.25;103397;1285;61396;-82
2023/06/25 09:22:18;;;;;;;;;;;;;;;27.65;47.77;100584.19;103347;1288;61280;-82
2023/06/25 09:24:44;;;;;;;;;;;;;;;27.65;47.74;100588.34;103331;1284;61388;-82
2023/06/25 09:27:09;;;;;;;;;;;;;;;27.66;47.68;100588.98;103345;1284;61406;-82
2023/06/25 09:29:35;;;;;;;;;;;;;;;27.65;47.84;100585.25;103462;1290;62300;-82
2023/06/25 09:32:05;;;;;;;;;;;;;;;27.66;47.67;100585.02;103522;1285;61979;-83
2023/06/25 09:34:31;;;;;;;;;;;;;;;27.66;47.86;100584.25;103357;1286;61370;-83
2023/06/25 09:36:56;;;;;;;;;;;;;;;27.66;47.95;100585.50;103309;1285;62257;-83
2023/06/25 09:39:21;;;;;;;;;;;;;;;27.66;47.69;100583.16;103448;1284;61392;-83
2023/06/25 09:41:47;;;;;;;;;;;;;;;27.67;47.82;100578.42;103416;1290;61355;-83
2023/06/25 09:44:12;;;;;;;;;;;;;;;27.66;48.00;100578.11;103473;1286;61485;-82
2023/06/25 09:46:38;;;;;;;;;;;;;;;27.66;47.84;100571.80;103465;1290;61401;-83
2023/06/25 09:49:04;;;;;;;;;;;;;;;27.67;47.80;100578.23;103419;1285;62574;-83
2023/06/25 09:51:31;;;;;;;;;;;;;;;27.66;47.86;100577.90;103400;1291;61389;-83
2023/06/25 09:53:57;;;;;;;;;;;;;;;27.66;47.89;100575.94;103381;1290;61474;-83
2023/06/25 09:56:22;;;;;;;;;;;;;;;27.67;47.69;100574.09;103503;1289;62453;-82
2023/06/25 09:58:48;;;;;;;;;;;;;;;27.66;47.83;100572.73;103374;1290;61480;-82
2023/06/25 10:01:13;;;;;;;;;;;;;;;27.67;47.87;100571.20;103646;1285;61453;-82
2023/06/25 10:03:39;;;;;;;;;;;;;;;27.66;47.95;100570.32;103486;1284;66871;-82
2023/06/25 10:06:04;;;;;;;;;;;;;;;27.67;47.55;100565.77;103453;1290;61488;-82
2023/06/25 10:08:32;;;;;;;;;;;;;;;27.67;47.73;100559.45;103442;1287;61719;-82
2023/06/25 10:11:01;;;;;;;;;;;;;;;27.68;47.74;100561.67;103384;1284;61482;-82
2023/06/25 10:13:27;;;;;;;;;;;;;;;27.67;47.88;100558.48;103316;1284;65855;-82
2023/06/25 10:15:57;;;;;;;;;;;;;;;27.67;47.76;100556.14;103471;1285;61463;-82
2023/06/25 10:18:22;;;;;;;;;;;;;;;27.67;47.78;100557.56;103357;1286;61386;-83
2023/06/25 10:20:48;;;;;;;;;;;;;;;27.68;47.76;100556.08;103363;1290;61395;-82
2023/06/25 10:23:13;;;;;;;;;;;;;;;27.67;47.85;100553.08;103367;1290;61514;-82
2023/06/25 10:25:40;;;;;;;;;;;;;;;27.67;47.74;100553.60;103371;1290;61392;-82
2023/06/25 10:28:09;;;;;;;;;;;;;;;27.67;47.80;100550.48;103353;1290;61391;-83
2023/06/25 10:30:36;;;;;;;;;;;;;;;27.68;47.84;100550.46;103264;1292;66165;-82
2023/06/25 10:33:01;;;;;;;;;;;;;;;27.68;47.76;100549.17;103373;1286;61770;-82
2023/06/25 10:35:27;;;;;;;;;;;;;;;27.68;47.74;100548.26;103340;1288;62799;-82
2023/06/25 10:37:52;;;;;;;;;;;;;;;27.68;47.65;100541.95;103359;1284;61440;-82
2023/06/25 10:40:18;;;;;;;;;;;;;;;27.68;47.63;100540.13;103315;1290;61383;-82
2023/06/25 10:42:43;;;;;;;;;;;;;;;27.69;47.76;100536.80;103414;1290;61350;-82
2023/06/25 10:45:08;;;;;;;;;;;;;;;27.68;47.69;100537.17;103450;1285;62675;-82
2023/06/25 10:47:34;;;;;;;;;;;;;;;27.69;47.69;100534.42;103466;1287;61411;-82
2023/06/25 10:49:59;;;;;;;;;;;;;;;27.69;47.74;100531.16;103358;1287;62006;-82
2023/06/25 10:52:25;;;;;;;;;;;;;;;27.70;47.71;100521.52;103387;1287;61440;-82
2023/06/25 10:54:53;;;;;;;;;;;;;;;27.69;47.72;100522.44;103442;1290;61913;-82
2023/06/25 10:57:19;;;;;;;;;;;;;;;27.69;47.66;100521.18;103372;1287;66821;-82
2023/06/25 10:59:45;;;;;;;;;;;;;;;27.70;47.75;100513.89;103422;1291;61387;-82
2023/06/25 11:02:14;;;;;;;;;;;;;;;27.70;47.73;100505.79;103317;1286;61443;-82
2023/06/25 11:04:49;;;;;;;;;;;;;;;27.70;47.73;100503.99;103443;1288;64939;-82
2023/06/25 11:07:15;;;;;;;;;;;;;;;27.70;47.59;100506.83;103479;1286;65658;-82
2023/06/25 11:09:42;;;;;;;;;;;;;;;27.70;47.57;100504.84;103427;1285;61333;-82
2023/06/25 11:12:07;;;;;;;;;;;;;;;27.70;47.71;100502.51;103476;1284;62067;-82
2023/06/25 11:14:35;;;;;;;;;;;;;;;27.70;47.62;100496.11;103484;1286;61307;-82
2023/06/25 11:17:01;;;;;;;;;;;;;;;27.70;47.90;100493.23;103448;1289;65663;-82
2023/06/25 11:19:27;;;;;;;;;;;;;;;27.70;47.81;100488.55;103322;1287;61454;-82
2023/06/25 11:21:53;;;;;;;;;;;;;;;27.70;47.82;100478.96;103359;1288;61448;-81
2023/06/25 11:24:19;;;;;;;;;;;;;;;27.70;47.76;100467.92;103566;1290;61341;-81
2023/06/25 11:26:45;;;;;;;;;;;;;;;27.71;47.63;100463.70;103459;1287;62084;-82
2023/06/25 11:29:10;;;;;;;;;;;;;;;27.70;47.67;100465.56;103388;1290;61488;-82
2023/06/25 11:31:50;;;;;;;;;;;;;;;27.71;47.85;100458.64;103403;1286;61379;-82
2023/06/25 11:34:24;;;;;;;;;;;;;;;27.71;47.64;100458.44;103381;1289;61377;-82
2023/06/25 11:36:50;;;;;;;;;;;;;;;27.71;47.76;100453.15;103335;1290;63897;-82
2023/06/25 11:39:15;;;;;;;;;;;;;;;27.71;47.87;100443.77;103322;1290;61391;-82
2023/06/25 11:41:42;;;;;;;;;;;;;;;27.71;47.52;100441.05;103501;1291;61481;-82
2023/06/25 11:44:17;;;;;;;;;;;;;;;27.72;47.68;100447.50;103694;1289;61387;-82
2023/06/25 11:46:53;;;;;;;;;;;;;;;27.72;47.70;100452.93;103832;1287;63620;-82
2023/06/25 11:49:18;;;;;;;;;;;;;;;27.72;47.78;100455.77;103557;1286;65821;-82
2023/06/25 11:51:44;;;;;;;;;;;;;;;27.73;47.83;100443.79;103643;1286;61411;-82
2023/06/25 11:54:10;;;;;;;;;;;;;;;27.73;47.67;100434.73;103495;1290;62110;-82
2023/06/25 11:56:35;;;;;;;;;;;;;;;27.74;47.64;100431.92;103334;1287;61383;-82
2023/06/25 11:59:01;;;;;;;;;;;;;;;27.74;47.75;100424.46;103597;1289;62515;-82
2023/06/25 12:01:26;;;;;;;;;;;;;;;27.74;47.71;100422.64;103380;1286;66812;-82
2023/06/25 12:03:52;;;;;;;;;;;;;;;27.75;47.62;100422.42;103352;1294;61396;-82
2023/06/25 12:06:17;;;;;;;;;;;;;;;27.75;47.68;100422.02;103649;1285;61498;-82
2023/06/25 12:08:44;;;;;;;;;;;;;;;27.75;47.53;100414.77;103485;1290;61394;-82
2023/06/25 12:11:09;;;;;;;;;;;;;;;27.76;47.55;100410.73;103360;1287;61437;-82
2023/06/25 12:13:35;;;;;;;;;;;;;;;27.76;47.64;100401.48;103616;1290;62591;-82
2023/06/25 12:16:00;;;;;;;;;;;;;;;27.77;47.64;100398.54;103511;1291;61362;-82
2023/06/25 12:18:26;;;;;;;;;;;;;;;27.77;47.68;100395.44;103340;1286;62550;-83